createdAt,value
2018-11-11T00:07:32.809Z,12.40
2018-11-11T00:10:01.694Z,12.40
2018-11-11T00:14:59.098Z,12.30
2018-11-11T00:17:27.985Z,12.20
2018-11-11T00:22:25.388Z,12.20
2018-11-11T00:27:22.898Z,12.10
2018-11-11T00:32:20.366Z,12.20
2018-11-11T00:34:49.257Z,12.20
2018-11-11T00:39:46.792Z,12.20
2018-11-11T00:49:41.437Z,12.20
2018-11-11T00:54:39.080Z,12.10
2018-11-11T00:57:08.434Z,12.20
2018-11-11T00:59:37.352Z,12.20
2018-11-11T01:09:31.751Z,12.30
2018-11-11T01:14:29.103Z,12.40
2018-11-11T01:16:57.967Z,12.40
2018-11-11T01:24:23.893Z,12.40
2018-11-11T01:36:47.513Z,12.50
2018-11-11T01:39:16.410Z,12.50
2018-11-11T01:44:13.816Z,12.50
2018-11-11T01:49:11.248Z,12.50
2018-11-11T01:54:08.651Z,12.40
2018-11-11T01:59:06.030Z,12.40
2018-11-11T02:06:31.942Z,12.30
2018-11-11T02:09:00.822Z,12.30
2018-11-11T02:11:29.708Z,12.30
2018-11-11T02:13:58.580Z,12.30
2018-11-11T02:18:56.038Z,12.20
2018-11-11T02:23:53.458Z,12.20
2018-11-11T02:31:19.361Z,12.10
2018-11-11T02:36:16.803Z,12.20
2018-11-11T02:41:14.234Z,12.20
2018-11-11T02:43:43.131Z,12.20
2018-11-11T02:46:12.049Z,12.20
2018-11-11T02:48:40.937Z,12.10
2018-11-11T02:56:07.382Z,12.10
2018-11-11T03:01:04.738Z,12.10
2018-11-11T03:06:02.099Z,12.10
2018-11-11T03:10:59.559Z,12.10
2018-11-11T03:13:28.434Z,12.10
2018-11-11T03:18:25.812Z,12.10
2018-11-11T03:30:49.149Z,12.10
2018-11-11T03:35:47.027Z,12.10
2018-11-11T03:38:15.884Z,12.10
2018-11-11T03:40:44.726Z,12.10
2018-11-11T03:43:13.594Z,12.10
2018-11-11T03:53:08.016Z,12.10
2018-11-11T04:00:33.875Z,12.20
2018-11-11T04:05:31.242Z,12.30
2018-11-11T04:10:28.674Z,12.30
2018-11-11T04:15:25.970Z,12.30
2018-11-11T04:20:23.326Z,12.30
2018-11-11T04:22:52.195Z,12.30
2018-11-11T04:27:49.574Z,12.30
2018-11-11T04:37:43.954Z,12.40
2018-11-11T04:42:41.958Z,12.40
2018-11-11T04:45:13.001Z,12.30
2018-11-11T04:47:42.108Z,12.40
2018-11-11T04:52:41.367Z,12.40
2018-11-11T04:57:39.598Z,12.40
2018-11-11T05:02:38.167Z,12.40
2018-11-11T05:05:07.458Z,12.40
2018-11-11T05:10:04.999Z,12.40
2018-11-11T05:12:33.898Z,12.40
2018-11-11T05:15:02.786Z,12.30
2018-11-11T05:17:31.667Z,12.40
2018-11-11T05:22:29.102Z,12.30
2018-11-11T05:24:57.988Z,12.30
2018-11-11T05:32:24.016Z,12.40
2018-11-11T05:44:47.358Z,12.40
2018-11-11T05:47:16.279Z,12.40
2018-11-11T05:52:13.633Z,12.30
2018-11-11T05:57:11.090Z,12.40
2018-11-11T05:59:40.114Z,12.40
2018-11-11T06:04:37.502Z,12.40
2018-11-11T06:09:34.919Z,12.30
2018-11-11T06:14:32.310Z,12.30
2018-11-11T06:17:01.190Z,12.30
2018-11-11T06:19:30.093Z,12.20
2018-11-11T06:21:58.958Z,12.20
2018-11-11T06:31:53.420Z,12.10
2018-11-11T06:34:22.306Z,12.10
2018-11-11T06:36:51.167Z,12.00
2018-11-11T06:39:20.051Z,12.00
2018-11-11T06:41:48.933Z,12.00
2018-11-11T06:44:17.815Z,12.00
2018-11-11T06:46:46.698Z,12.00
2018-11-11T06:51:44.408Z,12.00
2018-11-11T06:54:13.321Z,12.00
2018-11-11T06:56:42.190Z,12.00
2018-11-11T07:04:08.111Z,12.00
2018-11-11T07:06:36.990Z,12.00
2018-11-11T07:11:35.022Z,12.00
2018-11-11T07:16:32.426Z,12.10
2018-11-11T07:19:01.375Z,12.10
2018-11-11T07:21:30.262Z,12.10
2018-11-11T07:23:59.178Z,12.10
2018-11-11T07:26:28.022Z,12.10
2018-11-11T07:33:53.955Z,12.20
2018-11-11T07:41:19.867Z,12.30
2018-11-11T07:46:17.255Z,12.40
2018-11-11T07:48:46.126Z,12.40
2018-11-11T07:51:14.999Z,12.40
2018-11-11T07:56:12.350Z,12.50
2018-11-11T08:13:37.972Z,12.60
2018-11-11T08:18:35.306Z,12.80
2018-11-11T08:21:04.163Z,12.80
2018-11-11T08:23:33.014Z,12.90
2018-11-11T08:30:58.874Z,13.00
2018-11-11T08:40:53.278Z,13.00
2018-11-11T08:43:22.149Z,13.00
2018-11-11T08:48:19.740Z,13.00
2018-11-11T08:53:17.027Z,13.00
2018-11-11T09:08:08.614Z,13.20
2018-11-11T09:10:37.530Z,13.20
2018-11-11T09:13:06.625Z,13.30
2018-11-11T09:15:35.561Z,13.40
2018-11-11T09:18:04.436Z,13.40
2018-11-11T09:20:33.297Z,13.30
2018-11-11T09:23:02.177Z,13.40
2018-11-11T09:30:28.755Z,13.60
2018-11-11T09:40:23.153Z,13.70
2018-11-11T09:45:20.558Z,13.70
2018-11-11T09:47:49.506Z,13.80
2018-11-11T09:52:46.969Z,13.80
2018-11-11T09:57:44.265Z,13.90
2018-11-11T10:05:30.534Z,14.10
2018-11-11T10:08:05.005Z,14.00
2018-11-11T10:13:19.806Z,14.10
2018-11-11T10:18:29.648Z,14.00
2018-11-11T10:21:04.635Z,14.10
2018-11-11T10:26:15.845Z,14.20
2018-11-11T10:32:23.796Z,14.30
2018-11-11T10:37:35.807Z,14.50
2018-11-11T10:40:11.576Z,14.60
2018-11-11T10:42:53.460Z,14.70
2018-11-11T10:45:33.559Z,14.70
2018-11-11T10:53:07.507Z,14.70
2018-11-11T10:58:04.982Z,14.70
2018-11-11T11:03:39.934Z,14.90
2018-11-11T11:06:08.782Z,14.90
2018-11-11T11:08:41.859Z,14.80
2018-11-11T11:11:10.719Z,14.90
2018-11-11T11:16:08.109Z,14.80
2018-11-11T11:21:05.451Z,14.80
2018-11-11T11:23:34.343Z,14.80
2018-11-11T11:26:03.169Z,14.80
2018-11-11T11:35:57.550Z,15.00
2018-11-11T11:40:55.802Z,15.20
2018-11-11T11:53:19.222Z,15.20
2018-11-11T11:55:48.097Z,15.10
2018-11-11T11:58:21.982Z,15.00
2018-11-11T12:00:50.815Z,15.00
2018-11-11T12:03:19.691Z,14.90
2018-11-11T12:08:17.100Z,14.90
2018-11-11T12:15:44.104Z,15.00
2018-11-11T12:35:35.336Z,15.10
2018-11-11T12:38:04.251Z,15.10
2018-11-11T12:40:33.133Z,15.10
2018-11-11T12:45:30.519Z,15.10
2018-11-11T12:47:59.427Z,15.00
2018-11-11T12:55:26.405Z,14.90
2018-11-11T13:00:23.710Z,14.90
2018-11-11T13:05:21.079Z,14.70
2018-11-11T13:07:49.941Z,14.70
2018-11-11T13:12:47.306Z,14.50
2018-11-11T13:17:45.058Z,14.40
2018-11-11T13:20:15.481Z,14.40
2018-11-11T13:22:44.430Z,14.30
2018-11-11T13:25:14.099Z,14.30
2018-11-11T13:30:12.864Z,14.10
2018-11-11T13:35:12.268Z,14.00
2018-11-11T13:37:41.792Z,13.80
2018-11-11T13:40:13.185Z,13.80
2018-11-11T13:45:14.406Z,13.80
2018-11-11T13:47:44.413Z,13.70
2018-11-11T13:50:15.751Z,13.70
2018-11-11T13:55:14.271Z,13.80
2018-11-11T14:02:44.310Z,13.60
2018-11-11T14:05:13.176Z,13.50
2018-11-11T14:15:12.318Z,13.30
2018-11-11T14:17:41.706Z,13.30
2018-11-11T14:20:11.847Z,13.30
2018-11-11T14:22:42.039Z,13.30
2018-11-11T14:25:14.764Z,13.20
2018-11-11T14:30:15.041Z,13.30
2018-11-11T14:32:44.171Z,13.30
2018-11-11T14:40:13.120Z,13.30
2018-11-11T14:45:12.239Z,13.20
2018-11-11T14:47:41.714Z,13.20
2018-11-11T14:50:11.814Z,13.20
2018-11-11T14:52:41.233Z,13.10
2018-11-11T14:57:43.590Z,13.10
2018-11-11T15:05:13.303Z,13.00
2018-11-11T15:10:12.746Z,13.00
2018-11-11T15:12:42.111Z,13.10
2018-11-11T15:15:14.924Z,13.00
2018-11-11T15:17:44.485Z,13.00
2018-11-11T15:20:14.360Z,13.00
2018-11-11T15:35:15.043Z,13.00
2018-11-11T15:37:43.923Z,13.00
2018-11-11T15:47:42.022Z,13.00
2018-11-11T15:50:15.537Z,13.00
2018-11-11T15:52:45.997Z,13.00
2018-11-11T15:57:43.930Z,12.90
2018-11-11T16:05:12.656Z,12.70
2018-11-11T16:07:42.249Z,12.70
2018-11-11T16:10:13.131Z,12.70
2018-11-11T16:12:42.203Z,12.80
2018-11-11T16:15:14.578Z,12.70
2018-11-11T16:17:44.272Z,12.70
2018-11-11T16:27:42.587Z,12.70
2018-11-11T16:30:14.267Z,12.80
2018-11-11T16:35:13.279Z,12.70
2018-11-11T16:40:13.460Z,12.70
2018-11-11T16:45:12.805Z,12.70
2018-11-11T16:47:41.741Z,12.70
2018-11-11T16:50:15.405Z,12.70
2018-11-11T16:55:14.890Z,12.70
2018-11-11T16:57:43.903Z,12.70
2018-11-11T17:05:14.286Z,12.80
2018-11-11T17:10:15.425Z,12.70
2018-11-11T17:12:45.185Z,12.70
2018-11-11T17:15:16.425Z,12.70
2018-11-11T17:17:45.315Z,12.70
2018-11-11T17:20:16.384Z,12.70
2018-11-11T17:22:45.884Z,12.70
2018-11-11T17:27:44.365Z,12.70
2018-11-11T17:32:44.937Z,12.80
2018-11-11T17:35:13.762Z,12.80
2018-11-11T17:40:13.280Z,12.90
2018-11-11T17:42:43.370Z,12.90
2018-11-11T17:45:12.613Z,12.80
2018-11-11T17:47:42.042Z,12.90
2018-11-11T17:50:14.590Z,12.80
2018-11-11T17:52:44.186Z,12.90
2018-11-11T18:02:42.100Z,12.90
2018-11-11T18:05:12.102Z,12.90
2018-11-11T18:10:11.540Z,12.90
2018-11-11T18:12:40.422Z,12.90
2018-11-11T18:15:10.600Z,12.80
2018-11-11T18:17:40.079Z,12.80
2018-11-11T18:20:12.939Z,12.80
2018-11-11T18:22:41.821Z,12.80
2018-11-11T18:25:10.675Z,12.80
2018-11-11T18:27:39.700Z,12.80
2018-11-11T18:32:38.877Z,12.80
2018-11-11T18:40:06.205Z,12.70
2018-11-11T18:52:29.546Z,12.50
2018-11-11T18:57:26.988Z,12.60
2018-11-11T18:59:55.771Z,12.50
2018-11-11T19:09:51.045Z,12.40
2018-11-11T19:14:48.342Z,12.40
2018-11-11T19:17:17.233Z,12.40
2018-11-11T19:32:08.726Z,12.40
2018-11-11T19:34:37.548Z,12.30
2018-11-11T19:37:07.049Z,12.30
2018-11-11T19:39:35.954Z,12.30
2018-11-11T19:42:05.186Z,12.40
2018-11-11T19:47:02.495Z,12.30
2018-11-11T19:56:57.258Z,12.20
2018-11-11T19:59:26.121Z,12.20
2018-11-11T20:04:23.903Z,12.10
2018-11-11T20:09:21.267Z,12.10
2018-11-11T20:11:50.182Z,12.00
2018-11-11T20:16:47.530Z,12.00
2018-11-11T20:21:44.925Z,11.90
2018-11-11T20:24:13.834Z,11.90
2018-11-11T20:29:11.771Z,11.90
2018-11-11T20:39:09.518Z,12.00
2018-11-11T20:41:38.419Z,12.00
2018-11-11T20:46:37.359Z,12.00
2018-11-11T20:51:34.880Z,12.00
2018-11-11T21:06:26.821Z,11.90
2018-11-11T21:08:55.735Z,11.90
2018-11-11T21:13:53.902Z,11.90
2018-11-11T21:16:22.775Z,11.90
2018-11-11T21:18:51.663Z,12.00
2018-11-11T21:21:20.552Z,11.90
2018-11-11T21:31:15.051Z,11.90
2018-11-11T21:33:43.922Z,11.90
2018-11-11T21:36:12.839Z,11.90
2018-11-11T21:38:41.745Z,11.90
2018-11-11T21:43:39.182Z,11.90
2018-11-11T21:51:05.546Z,11.90
2018-11-11T22:03:30.029Z,12.00
2018-11-11T22:05:58.901Z,11.90
2018-11-11T22:08:27.812Z,11.90
2018-11-11T22:15:53.781Z,12.00
2018-11-11T22:18:22.880Z,11.90
2018-11-11T22:20:51.758Z,11.90
2018-11-11T22:28:17.828Z,11.90
2018-11-11T22:35:43.746Z,11.90
2018-11-11T22:38:12.644Z,11.90
2018-11-11T22:40:41.548Z,11.90
2018-11-11T22:45:38.994Z,11.90
2018-11-11T22:48:07.884Z,11.90
2018-11-11T22:50:36.759Z,11.90
2018-11-11T22:58:02.806Z,12.00
2018-11-11T23:00:32.306Z,12.00
2018-11-11T23:20:21.334Z,11.90
2018-11-11T23:27:47.470Z,11.80
2018-11-11T23:32:49.196Z,11.80
2018-11-11T23:40:16.322Z,11.90
2018-11-11T23:45:14.366Z,11.90
2018-11-11T23:50:14.621Z,11.90
